This is the latest recevied weather packets stored in our database for station/object SP8C-13. If no packets are shown the sender has not sent any weather packets the latest 10 day(s).
| Time | Temp. | Humidity | Pressure | Rain* | Wind** | Luminosity | Snow |
|---|---|---|---|---|---|---|---|
| 1788110167 | 23.89° C | 54% | 1015.7 hPa | - | - | - | - |
| 1788108367 | 26.11° C | 47% | 1015.6 hPa | - | - | - | - |
| 1788104767 | 27.22° C | 43% | 1015.9 hPa | - | - | - | - |
| 1788102967 | 27.78° C | 42% | 1016 hPa | - | - | - | - |
| 1788101167 | 27.78° C | 41% | 1016.2 hPa | - | - | - | - |
| 1788099367 | 28.33° C | 42% | 1016.3 hPa | - | - | - | - |
| 1788097568 | 28.33° C | 41% | 1016.4 hPa | - | - | - | - |
| 1788095767 | 28.33° C | 42% | 1016.6 hPa | - | - | - | - |
| 1788092167 | 28.33° C | 44% | 1017 hPa | - | - | - | - |
| 1788088567 | 26.67° C | 50% | 1017.6 hPa | - | - | - | - |
| 1788086767 | 27.22° C | 49% | 1017.8 hPa | - | - | - | - |
| 1788084967 | 26.11° C | 51% | 1017.8 hPa | - | - | - | - |
| 1788083167 | 26.67° C | 52% | 1018 hPa | - | - | - | - |
| 1788081367 | 26.67° C | 53% | 1018.2 hPa | - | - | - | - |
| 1788079567 | 24.44° C | 61% | 1018.4 hPa | - | - | - | - |
| 1788077767 | 22.22° C | 70% | 1018.5 hPa | - | - | - | - |
| 1788075967 | 21.11° C | 71% | 1018.6 hPa | - | - | - | - |
| 1788074167 | 20.56° C | 75% | 1018.6 hPa | - | - | - | - |
| 1788072367 | 18.33° C | 82% | 1018.5 hPa | - | - | - | - |
| 1788070567 | 17.22° C | 83% | 1018.4 hPa | - | - | - | - |
| 1788068767 | 14.44° C | 93% | 1018.1 hPa | - | - | - | - |
| 1788066966 | 13.33° C | 96% | 1018.1 hPa | - | - | - | - |
* Rain since midnight (hover to see other rain measurements)
** Current wind speed in m/s (hover to see current wind gust speed)